sensor_id;sensor_type;location;lat;lon;timestamp;P1;durP1;ratioP1;P2;durP2;ratioP2
21010;SDS011;10663;42.714;23.274;2022-12-07T00:00:47;34.45;;;21.17;;
21010;SDS011;10663;42.714;23.274;2022-12-07T00:02:18;33.38;;;20.38;;
21010;SDS011;10663;42.714;23.274;2022-12-07T00:03:50;33.40;;;20.40;;
21010;SDS011;10663;42.714;23.274;2022-12-07T00:05:22;34.78;;;21.90;;
21010;SDS011;10663;42.714;23.274;2022-12-07T00:06:53;34.00;;;20.27;;
21010;SDS011;10663;42.714;23.274;2022-12-07T00:08:24;30.53;;;19.67;;
21010;SDS011;10663;42.714;23.274;2022-12-07T00:09:55;34.80;;;20.65;;
21010;SDS011;10663;42.714;23.274;2022-12-07T00:11:26;32.07;;;19.90;;
21010;SDS011;10663;42.714;23.274;2022-12-07T00:12:57;30.55;;;19.65;;
21010;SDS011;10663;42.714;23.274;2022-12-07T00:14:28;32.33;;;20.05;;
21010;SDS011;10663;42.714;23.274;2022-12-07T00:16:00;31.95;;;20.65;;
21010;SDS011;10663;42.714;23.274;2022-12-07T00:17:32;34.15;;;20.90;;
21010;SDS011;10663;42.714;23.274;2022-12-07T00:19:04;32.38;;;21.08;;
21010;SDS011;10663;42.714;23.274;2022-12-07T00:20:35;35.33;;;21.30;;
21010;SDS011;10663;42.714;23.274;2022-12-07T00:22:06;32.25;;;21.02;;
21010;SDS011;10663;42.714;23.274;2022-12-07T00:23:37;34.25;;;20.60;;
21010;SDS011;10663;42.714;23.274;2022-12-07T00:25:08;30.65;;;20.13;;
21010;SDS011;10663;42.714;23.274;2022-12-07T00:26:39;32.72;;;20.90;;
21010;SDS011;10663;42.714;23.274;2022-12-07T00:28:12;36.80;;;22.05;;
21010;SDS011;10663;42.714;23.274;2022-12-07T00:29:43;35.67;;;21.98;;
21010;SDS011;10663;42.714;23.274;2022-12-07T00:31:14;34.92;;;21.30;;
21010;SDS011;10663;42.714;23.274;2022-12-07T00:32:46;33.05;;;21.23;;
21010;SDS011;10663;42.714;23.274;2022-12-07T00:34:18;36.30;;;22.02;;
21010;SDS011;10663;42.714;23.274;2022-12-07T00:35:55;33.55;;;21.40;;
21010;SDS011;10663;42.714;23.274;2022-12-07T00:37:27;33.55;;;21.02;;
21010;SDS011;10663;42.714;23.274;2022-12-07T00:38:58;36.95;;;21.05;;
21010;SDS011;10663;42.714;23.274;2022-12-07T00:40:30;32.42;;;20.75;;
21010;SDS011;10663;42.714;23.274;2022-12-07T00:42:00;33.45;;;22.13;;
21010;SDS011;10663;42.714;23.274;2022-12-07T00:43:31;34.03;;;21.08;;
21010;SDS011;10663;42.714;23.274;2022-12-07T00:45:03;34.65;;;21.70;;
21010;SDS011;10663;42.714;23.274;2022-12-07T00:46:34;35.63;;;21.88;;
21010;SDS011;10663;42.714;23.274;2022-12-07T00:48:05;37.67;;;22.98;;
21010;SDS011;10663;42.714;23.274;2022-12-07T00:49:36;36.30;;;22.55;;
21010;SDS011;10663;42.714;23.274;2022-12-07T00:51:07;34.08;;;21.33;;
21010;SDS011;10663;42.714;23.274;2022-12-07T00:52:43;33.30;;;20.57;;
21010;SDS011;10663;42.714;23.274;2022-12-07T00:54:14;45.63;;;28.77;;
21010;SDS011;10663;42.714;23.274;2022-12-07T00:55:45;38.70;;;24.65;;
21010;SDS011;10663;42.714;23.274;2022-12-07T00:57:16;38.20;;;24.17;;
21010;SDS011;10663;42.714;23.274;2022-12-07T00:58:51;35.67;;;23.25;;
21010;SDS011;10663;42.714;23.274;2022-12-07T01:00:23;33.67;;;22.98;;
21010;SDS011;10663;42.714;23.274;2022-12-07T01:01:54;44.08;;;23.80;;
21010;SDS011;10663;42.714;23.274;2022-12-07T01:03:25;38.80;;;23.20;;
21010;SDS011;10663;42.714;23.274;2022-12-07T01:04:56;38.60;;;23.45;;
21010;SDS011;10663;42.714;23.274;2022-12-07T01:06:27;37.25;;;23.25;;
21010;SDS011;10663;42.714;23.274;2022-12-07T01:07:58;38.00;;;25.23;;
21010;SDS011;10663;42.714;23.274;2022-12-07T01:09:29;40.72;;;25.38;;
21010;SDS011;10663;42.714;23.274;2022-12-07T01:11:04;42.20;;;25.50;;
21010;SDS011;10663;42.714;23.274;2022-12-07T01:12:36;39.10;;;25.65;;
21010;SDS011;10663;42.714;23.274;2022-12-07T01:14:08;41.50;;;25.83;;
21010;SDS011;10663;42.714;23.274;2022-12-07T01:15:40;36.85;;;24.55;;
21010;SDS011;10663;42.714;23.274;2022-12-07T01:17:11;40.33;;;25.30;;
21010;SDS011;10663;42.714;23.274;2022-12-07T01:18:45;40.33;;;25.65;;
21010;SDS011;10663;42.714;23.274;2022-12-07T01:20:17;39.10;;;24.92;;
21010;SDS011;10663;42.714;23.274;2022-12-07T01:21:48;41.15;;;25.48;;
21010;SDS011;10663;42.714;23.274;2022-12-07T01:23:19;39.45;;;26.10;;
21010;SDS011;10663;42.714;23.274;2022-12-07T01:24:49;41.55;;;25.15;;
21010;SDS011;10663;42.714;23.274;2022-12-07T01:26:21;39.20;;;24.45;;
21010;SDS011;10663;42.714;23.274;2022-12-07T01:27:53;41.45;;;24.63;;
21010;SDS011;10663;42.714;23.274;2022-12-07T01:29:24;38.58;;;24.85;;
21010;SDS011;10663;42.714;23.274;2022-12-07T01:31:02;38.55;;;24.27;;
21010;SDS011;10663;42.714;23.274;2022-12-07T01:32:45;39.53;;;24.65;;
21010;SDS011;10663;42.714;23.274;2022-12-07T01:34:16;37.35;;;23.30;;
21010;SDS011;10663;42.714;23.274;2022-12-07T01:35:47;36.77;;;22.67;;
21010;SDS011;10663;42.714;23.274;2022-12-07T01:37:17;36.57;;;23.20;;
21010;SDS011;10663;42.714;23.274;2022-12-07T01:38:49;38.80;;;23.50;;
21010;SDS011;10663;42.714;23.274;2022-12-07T01:40:24;34.83;;;22.40;;
21010;SDS011;10663;42.714;23.274;2022-12-07T01:41:55;38.35;;;23.40;;
21010;SDS011;10663;42.714;23.274;2022-12-07T01:43:26;35.53;;;22.60;;
21010;SDS011;10663;42.714;23.274;2022-12-07T01:45:25;36.90;;;22.95;;
21010;SDS011;10663;42.714;23.274;2022-12-07T01:47:08;36.67;;;23.13;;
21010;SDS011;10663;42.714;23.274;2022-12-07T01:48:39;38.10;;;24.20;;
21010;SDS011;10663;42.714;23.274;2022-12-07T01:50:12;35.45;;;23.13;;
21010;SDS011;10663;42.714;23.274;2022-12-07T01:51:43;37.95;;;23.90;;
21010;SDS011;10663;42.714;23.274;2022-12-07T01:53:18;38.22;;;24.23;;
21010;SDS011;10663;42.714;23.274;2022-12-07T01:54:51;40.88;;;25.35;;
21010;SDS011;10663;42.714;23.274;2022-12-07T01:56:29;40.25;;;24.90;;
21010;SDS011;10663;42.714;23.274;2022-12-07T01:58:02;38.50;;;25.27;;
21010;SDS011;10663;42.714;23.274;2022-12-07T01:59:34;40.25;;;25.02;;
21010;SDS011;10663;42.714;23.274;2022-12-07T02:01:05;34.90;;;24.25;;
21010;SDS011;10663;42.714;23.274;2022-12-07T02:02:47;39.97;;;24.90;;
21010;SDS011;10663;42.714;23.274;2022-12-07T02:04:41;42.53;;;25.08;;
21010;SDS011;10663;42.714;23.274;2022-12-07T02:06:13;36.83;;;24.45;;
21010;SDS011;10663;42.714;23.274;2022-12-07T02:07:49;37.33;;;24.35;;
21010;SDS011;10663;42.714;23.274;2022-12-07T02:09:21;35.83;;;22.88;;
21010;SDS011;10663;42.714;23.274;2022-12-07T02:10:52;38.08;;;23.80;;
21010;SDS011;10663;42.714;23.274;2022-12-07T02:12:23;42.40;;;24.08;;
21010;SDS011;10663;42.714;23.274;2022-12-07T02:13:55;36.88;;;24.55;;
21010;SDS011;10663;42.714;23.274;2022-12-07T02:15:28;38.75;;;24.38;;
21010;SDS011;10663;42.714;23.274;2022-12-07T02:18:20;37.47;;;24.35;;
21010;SDS011;10663;42.714;23.274;2022-12-07T02:21:43;36.70;;;23.73;;
21010;SDS011;10663;42.714;23.274;2022-12-07T02:25:16;38.55;;;23.95;;
21010;SDS011;10663;42.714;23.274;2022-12-07T02:29:23;36.05;;;23.27;;
21010;SDS011;10663;42.714;23.274;2022-12-07T02:30:57;38.20;;;23.80;;
21010;SDS011;10663;42.714;23.274;2022-12-07T02:34:31;36.95;;;23.52;;
21010;SDS011;10663;42.714;23.274;2022-12-07T02:36:12;38.27;;;23.90;;
21010;SDS011;10663;42.714;23.274;2022-12-07T02:37:58;36.58;;;24.25;;
21010;SDS011;10663;42.714;23.274;2022-12-07T02:39:42;40.10;;;23.87;;
21010;SDS011;10663;42.714;23.274;2022-12-07T02:43:08;39.92;;;24.08;;
21010;SDS011;10663;42.714;23.274;2022-12-07T02:44:45;37.65;;;23.33;;
21010;SDS011;10663;42.714;23.274;2022-12-07T02:46:18;36.72;;;23.70;;
21010;SDS011;10663;42.714;23.274;2022-12-07T02:47:57;39.20;;;24.30;;
21010;SDS011;10663;42.714;23.274;2022-12-07T02:49:30;38.95;;;23.80;;
21010;SDS011;10663;42.714;23.274;2022-12-07T02:51:02;37.88;;;24.55;;
21010;SDS011;10663;42.714;23.274;2022-12-07T02:52:33;38.63;;;24.45;;
21010;SDS011;10663;42.714;23.274;2022-12-07T02:54:07;37.95;;;23.23;;
21010;SDS011;10663;42.714;23.274;2022-12-07T02:55:42;36.30;;;23.63;;
21010;SDS011;10663;42.714;23.274;2022-12-07T03:00:52;37.45;;;23.27;;
21010;SDS011;10663;42.714;23.274;2022-12-07T03:08:06;35.22;;;23.05;;
21010;SDS011;10663;42.714;23.274;2022-12-07T03:09:51;36.78;;;23.35;;
21010;SDS011;10663;42.714;23.274;2022-12-07T03:11:38;39.15;;;23.35;;
21010;SDS011;10663;42.714;23.274;2022-12-07T03:15:05;36.33;;;23.13;;
21010;SDS011;10663;42.714;23.274;2022-12-07T03:16:44;35.83;;;22.42;;
21010;SDS011;10663;42.714;23.274;2022-12-07T03:18:21;34.72;;;22.38;;
21010;SDS011;10663;42.714;23.274;2022-12-07T03:19:56;38.93;;;23.23;;
21010;SDS011;10663;42.714;23.274;2022-12-07T03:21:34;38.30;;;23.63;;
21010;SDS011;10663;42.714;23.274;2022-12-07T03:23:08;35.42;;;23.35;;
21010;SDS011;10663;42.714;23.274;2022-12-07T03:24:45;35.13;;;22.43;;
21010;SDS011;10663;42.714;23.274;2022-12-07T03:26:34;36.08;;;22.95;;
21010;SDS011;10663;42.714;23.274;2022-12-07T03:28:09;37.35;;;24.00;;
21010;SDS011;10663;42.714;23.274;2022-12-07T03:29:45;38.20;;;23.13;;
21010;SDS011;10663;42.714;23.274;2022-12-07T03:31:25;36.03;;;23.63;;
21010;SDS011;10663;42.714;23.274;2022-12-07T03:33:02;34.42;;;22.58;;
21010;SDS011;10663;42.714;23.274;2022-12-07T03:34:46;39.77;;;24.50;;
21010;SDS011;10663;42.714;23.274;2022-12-07T03:36:29;35.65;;;22.50;;
21010;SDS011;10663;42.714;23.274;2022-12-07T03:38:08;37.57;;;23.37;;
21010;SDS011;10663;42.714;23.274;2022-12-07T03:40:27;39.58;;;24.08;;
21010;SDS011;10663;42.714;23.274;2022-12-07T03:41:39;39.95;;;24.77;;
21010;SDS011;10663;42.714;23.274;2022-12-07T03:43:10;40.05;;;25.25;;
21010;SDS011;10663;42.714;23.274;2022-12-07T03:44:42;43.53;;;27.48;;
21010;SDS011;10663;42.714;23.274;2022-12-07T03:48:15;38.85;;;23.85;;
21010;SDS011;10663;42.714;23.274;2022-12-07T03:50:21;38.97;;;24.65;;
21010;SDS011;10663;42.714;23.274;2022-12-07T03:54:02;38.00;;;24.15;;
21010;SDS011;10663;42.714;23.274;2022-12-07T03:55:49;40.20;;;23.92;;
21010;SDS011;10663;42.714;23.274;2022-12-07T03:57:22;39.20;;;24.35;;
21010;SDS011;10663;42.714;23.274;2022-12-07T03:58:55;37.47;;;23.02;;
21010;SDS011;10663;42.714;23.274;2022-12-07T04:00:26;40.40;;;24.27;;
21010;SDS011;10663;42.714;23.274;2022-12-07T04:02:02;37.08;;;23.23;;
21010;SDS011;10663;42.714;23.274;2022-12-07T04:03:35;38.35;;;23.75;;
21010;SDS011;10663;42.714;23.274;2022-12-07T04:05:06;36.60;;;24.33;;
21010;SDS011;10663;42.714;23.274;2022-12-07T04:06:37;38.53;;;25.23;;
21010;SDS011;10663;42.714;23.274;2022-12-07T04:08:08;44.08;;;26.38;;
21010;SDS011;10663;42.714;23.274;2022-12-07T04:09:39;45.08;;;28.77;;
21010;SDS011;10663;42.714;23.274;2022-12-07T04:11:10;45.80;;;28.90;;
21010;SDS011;10663;42.714;23.274;2022-12-07T04:12:41;45.20;;;27.85;;
21010;SDS011;10663;42.714;23.274;2022-12-07T04:14:12;39.90;;;25.70;;
21010;SDS011;10663;42.714;23.274;2022-12-07T04:15:49;41.53;;;25.90;;
21010;SDS011;10663;42.714;23.274;2022-12-07T04:17:19;38.63;;;25.60;;
21010;SDS011;10663;42.714;23.274;2022-12-07T04:18:50;46.17;;;28.52;;
21010;SDS011;10663;42.714;23.274;2022-12-07T04:20:21;46.05;;;28.73;;
21010;SDS011;10663;42.714;23.274;2022-12-07T04:21:52;52.92;;;29.90;;
21010;SDS011;10663;42.714;23.274;2022-12-07T04:23:23;45.67;;;29.52;;
21010;SDS011;10663;42.714;23.274;2022-12-07T04:24:54;48.25;;;30.75;;
21010;SDS011;10663;42.714;23.274;2022-12-07T04:26:25;47.67;;;30.00;;
21010;SDS011;10663;42.714;23.274;2022-12-07T04:27:56;47.33;;;30.60;;
21010;SDS011;10663;42.714;23.274;2022-12-07T04:29:27;45.47;;;28.80;;
21010;SDS011;10663;42.714;23.274;2022-12-07T04:31:01;44.67;;;27.53;;
21010;SDS011;10663;42.714;23.274;2022-12-07T04:32:32;47.60;;;28.23;;
21010;SDS011;10663;42.714;23.274;2022-12-07T04:34:03;43.40;;;27.07;;
21010;SDS011;10663;42.714;23.274;2022-12-07T04:35:34;43.03;;;27.73;;
21010;SDS011;10663;42.714;23.274;2022-12-07T04:37:05;48.30;;;29.17;;
21010;SDS011;10663;42.714;23.274;2022-12-07T04:38:36;42.97;;;27.50;;
21010;SDS011;10663;42.714;23.274;2022-12-07T04:40:08;46.70;;;28.10;;
21010;SDS011;10663;42.714;23.274;2022-12-07T04:41:41;43.25;;;27.77;;
21010;SDS011;10663;42.714;23.274;2022-12-07T04:43:12;44.20;;;27.13;;
21010;SDS011;10663;42.714;23.274;2022-12-07T04:44:43;43.47;;;26.58;;
21010;SDS011;10663;42.714;23.274;2022-12-07T04:46:13;41.00;;;26.13;;
21010;SDS011;10663;42.714;23.274;2022-12-07T04:47:44;39.83;;;26.27;;
21010;SDS011;10663;42.714;23.274;2022-12-07T04:49:15;42.40;;;26.27;;
21010;SDS011;10663;42.714;23.274;2022-12-07T04:50:47;42.45;;;26.25;;
21010;SDS011;10663;42.714;23.274;2022-12-07T04:52:20;42.28;;;27.13;;
21010;SDS011;10663;42.714;23.274;2022-12-07T04:53:51;41.25;;;26.48;;
21010;SDS011;10663;42.714;23.274;2022-12-07T04:55:22;39.17;;;25.45;;
21010;SDS011;10663;42.714;23.274;2022-12-07T04:56:53;38.53;;;25.30;;
21010;SDS011;10663;42.714;23.274;2022-12-07T04:58:23;39.55;;;25.55;;
21010;SDS011;10663;42.714;23.274;2022-12-07T04:59:54;39.55;;;26.33;;
21010;SDS011;10663;42.714;23.274;2022-12-07T05:01:25;43.63;;;27.60;;
21010;SDS011;10663;42.714;23.274;2022-12-07T05:02:56;40.17;;;26.02;;
21010;SDS011;10663;42.714;23.274;2022-12-07T05:04:27;43.10;;;26.65;;
21010;SDS011;10663;42.714;23.274;2022-12-07T05:05:58;44.58;;;27.70;;
21010;SDS011;10663;42.714;23.274;2022-12-07T05:07:28;44.60;;;28.10;;
21010;SDS011;10663;42.714;23.274;2022-12-07T05:08:59;44.90;;;28.10;;
21010;SDS011;10663;42.714;23.274;2022-12-07T05:10:32;44.35;;;27.73;;
21010;SDS011;10663;42.714;23.274;2022-12-07T05:12:03;42.37;;;27.60;;
21010;SDS011;10663;42.714;23.274;2022-12-07T05:13:34;42.45;;;28.23;;
21010;SDS011;10663;42.714;23.274;2022-12-07T05:15:05;44.70;;;28.33;;
21010;SDS011;10663;42.714;23.274;2022-12-07T05:16:37;43.13;;;27.90;;
21010;SDS011;10663;42.714;23.274;2022-12-07T05:18:08;40.50;;;26.17;;
21010;SDS011;10663;42.714;23.274;2022-12-07T05:19:39;40.70;;;26.50;;
21010;SDS011;10663;42.714;23.274;2022-12-07T05:21:10;42.95;;;27.40;;
21010;SDS011;10663;42.714;23.274;2022-12-07T05:22:41;42.55;;;27.08;;
21010;SDS011;10663;42.714;23.274;2022-12-07T05:24:12;42.03;;;26.73;;
21010;SDS011;10663;42.714;23.274;2022-12-07T05:25:45;43.72;;;26.98;;
21010;SDS011;10663;42.714;23.274;2022-12-07T05:27:16;43.53;;;26.88;;
21010;SDS011;10663;42.714;23.274;2022-12-07T05:28:51;43.80;;;26.42;;
21010;SDS011;10663;42.714;23.274;2022-12-07T05:30:26;43.42;;;26.52;;
21010;SDS011;10663;42.714;23.274;2022-12-07T05:31:57;42.38;;;26.77;;
21010;SDS011;10663;42.714;23.274;2022-12-07T05:33:28;44.83;;;27.58;;
21010;SDS011;10663;42.714;23.274;2022-12-07T05:34:59;45.30;;;26.25;;
21010;SDS011;10663;42.714;23.274;2022-12-07T05:36:30;42.60;;;27.25;;
21010;SDS011;10663;42.714;23.274;2022-12-07T05:38:02;44.30;;;27.85;;
21010;SDS011;10663;42.714;23.274;2022-12-07T05:39:33;43.40;;;28.13;;
21010;SDS011;10663;42.714;23.274;2022-12-07T05:41:04;46.70;;;29.20;;
21010;SDS011;10663;42.714;23.274;2022-12-07T05:42:36;46.38;;;30.08;;
21010;SDS011;10663;42.714;23.274;2022-12-07T05:44:07;44.60;;;28.85;;
21010;SDS011;10663;42.714;23.274;2022-12-07T05:45:38;43.33;;;27.88;;
21010;SDS011;10663;42.714;23.274;2022-12-07T05:47:10;43.03;;;25.95;;
21010;SDS011;10663;42.714;23.274;2022-12-07T05:48:42;44.58;;;27.02;;
21010;SDS011;10663;42.714;23.274;2022-12-07T05:50:13;40.63;;;26.35;;
21010;SDS011;10663;42.714;23.274;2022-12-07T05:51:43;43.08;;;27.67;;
21010;SDS011;10663;42.714;23.274;2022-12-07T05:53:14;45.45;;;27.98;;
21010;SDS011;10663;42.714;23.274;2022-12-07T05:54:45;45.08;;;29.20;;
21010;SDS011;10663;42.714;23.274;2022-12-07T05:56:17;46.08;;;29.52;;
21010;SDS011;10663;42.714;23.274;2022-12-07T05:57:48;41.60;;;27.50;;
21010;SDS011;10663;42.714;23.274;2022-12-07T05:59:37;44.83;;;28.92;;
21010;SDS011;10663;42.714;23.274;2022-12-07T06:01:08;44.17;;;29.20;;
21010;SDS011;10663;42.714;23.274;2022-12-07T06:02:39;55.13;;;35.92;;
21010;SDS011;10663;42.714;23.274;2022-12-07T06:04:10;53.65;;;33.92;;
21010;SDS011;10663;42.714;23.274;2022-12-07T06:05:41;54.03;;;32.92;;
21010;SDS011;10663;42.714;23.274;2022-12-07T06:07:12;51.87;;;34.47;;
21010;SDS011;10663;42.714;23.274;2022-12-07T06:08:44;54.65;;;36.42;;
21010;SDS011;10663;42.714;23.274;2022-12-07T06:10:16;56.80;;;38.00;;
21010;SDS011;10663;42.714;23.274;2022-12-07T06:11:46;67.30;;;46.28;;
21010;SDS011;10663;42.714;23.274;2022-12-07T06:13:38;60.42;;;39.38;;
21010;SDS011;10663;42.714;23.274;2022-12-07T06:15:09;48.03;;;29.70;;
21010;SDS011;10663;42.714;23.274;2022-12-07T06:16:40;65.00;;;42.63;;
21010;SDS011;10663;42.714;23.274;2022-12-07T06:18:11;67.20;;;42.33;;
21010;SDS011;10663;42.714;23.274;2022-12-07T06:19:42;63.33;;;41.17;;
21010;SDS011;10663;42.714;23.274;2022-12-07T06:21:13;65.25;;;42.55;;
21010;SDS011;10663;42.714;23.274;2022-12-07T06:22:44;67.75;;;42.72;;
21010;SDS011;10663;42.714;23.274;2022-12-07T06:24:16;65.50;;;44.00;;
21010;SDS011;10663;42.714;23.274;2022-12-07T06:25:47;66.25;;;43.35;;
21010;SDS011;10663;42.714;23.274;2022-12-07T06:27:18;68.47;;;44.20;;
21010;SDS011;10663;42.714;23.274;2022-12-07T06:28:49;63.67;;;42.80;;
21010;SDS011;10663;42.714;23.274;2022-12-07T06:30:20;64.30;;;41.15;;
21010;SDS011;10663;42.714;23.274;2022-12-07T06:31:51;59.22;;;40.00;;
21010;SDS011;10663;42.714;23.274;2022-12-07T06:33:22;58.83;;;37.53;;
21010;SDS011;10663;42.714;23.274;2022-12-07T06:34:53;61.73;;;37.93;;
21010;SDS011;10663;42.714;23.274;2022-12-07T06:36:23;55.73;;;37.03;;
21010;SDS011;10663;42.714;23.274;2022-12-07T06:37:54;53.85;;;34.92;;
21010;SDS011;10663;42.714;23.274;2022-12-07T06:39:26;57.47;;;34.15;;
21010;SDS011;10663;42.714;23.274;2022-12-07T06:40:58;51.25;;;32.53;;
21010;SDS011;10663;42.714;23.274;2022-12-07T06:42:29;53.13;;;34.63;;
21010;SDS011;10663;42.714;23.274;2022-12-07T06:44:00;50.97;;;33.75;;
21010;SDS011;10663;42.714;23.274;2022-12-07T06:45:30;52.17;;;34.60;;
21010;SDS011;10663;42.714;23.274;2022-12-07T06:47:01;65.90;;;39.10;;
21010;SDS011;10663;42.714;23.274;2022-12-07T06:48:32;71.15;;;42.67;;
21010;SDS011;10663;42.714;23.274;2022-12-07T06:50:03;72.95;;;42.25;;
21010;SDS011;10663;42.714;23.274;2022-12-07T06:51:36;70.70;;;41.55;;
21010;SDS011;10663;42.714;23.274;2022-12-07T06:53:11;66.28;;;40.40;;
21010;SDS011;10663;42.714;23.274;2022-12-07T06:54:42;60.70;;;37.03;;
21010;SDS011;10663;42.714;23.274;2022-12-07T06:56:13;63.28;;;38.13;;
21010;SDS011;10663;42.714;23.274;2022-12-07T06:57:44;62.35;;;37.47;;
21010;SDS011;10663;42.714;23.274;2022-12-07T06:59:15;63.58;;;40.25;;
21010;SDS011;10663;42.714;23.274;2022-12-07T07:00:47;66.00;;;40.40;;
21010;SDS011;10663;42.714;23.274;2022-12-07T07:02:19;63.40;;;40.13;;
21010;SDS011;10663;42.714;23.274;2022-12-07T07:03:50;64.70;;;38.45;;
21010;SDS011;10663;42.714;23.274;2022-12-07T07:05:21;56.33;;;33.95;;
21010;SDS011;10663;42.714;23.274;2022-12-07T07:06:52;55.40;;;34.70;;
21010;SDS011;10663;42.714;23.274;2022-12-07T07:08:23;55.47;;;34.08;;
21010;SDS011;10663;42.714;23.274;2022-12-07T07:09:54;57.85;;;34.53;;
21010;SDS011;10663;42.714;23.274;2022-12-07T07:11:26;53.65;;;31.00;;
21010;SDS011;10663;42.714;23.274;2022-12-07T07:12:56;49.80;;;29.25;;
21010;SDS011;10663;42.714;23.274;2022-12-07T07:14:27;54.38;;;32.28;;
21010;SDS011;10663;42.714;23.274;2022-12-07T07:15:58;47.88;;;30.58;;
21010;SDS011;10663;42.714;23.274;2022-12-07T07:17:29;48.75;;;30.60;;
21010;SDS011;10663;42.714;23.274;2022-12-07T07:19:00;51.53;;;31.33;;
21010;SDS011;10663;42.714;23.274;2022-12-07T07:20:31;50.70;;;30.37;;
21010;SDS011;10663;42.714;23.274;2022-12-07T07:22:02;58.92;;;37.30;;
21010;SDS011;10663;42.714;23.274;2022-12-07T07:23:33;54.63;;;32.72;;
21010;SDS011;10663;42.714;23.274;2022-12-07T07:25:04;55.95;;;36.08;;
21010;SDS011;10663;42.714;23.274;2022-12-07T07:26:35;56.58;;;34.55;;
21010;SDS011;10663;42.714;23.274;2022-12-07T07:28:06;51.35;;;33.08;;
21010;SDS011;10663;42.714;23.274;2022-12-07T07:29:36;54.22;;;32.00;;
21010;SDS011;10663;42.714;23.274;2022-12-07T07:31:07;52.95;;;33.20;;
21010;SDS011;10663;42.714;23.274;2022-12-07T07:32:38;51.78;;;32.33;;
21010;SDS011;10663;42.714;23.274;2022-12-07T07:34:09;48.53;;;30.73;;
21010;SDS011;10663;42.714;23.274;2022-12-07T07:35:40;47.50;;;30.17;;
21010;SDS011;10663;42.714;23.274;2022-12-07T07:37:11;50.45;;;31.05;;
21010;SDS011;10663;42.714;23.274;2022-12-07T07:38:43;48.45;;;30.67;;
21010;SDS011;10663;42.714;23.274;2022-12-07T07:40:13;44.30;;;28.30;;
21010;SDS011;10663;42.714;23.274;2022-12-07T07:41:44;45.55;;;28.95;;
21010;SDS011;10663;42.714;23.274;2022-12-07T07:43:18;44.53;;;28.38;;
21010;SDS011;10663;42.714;23.274;2022-12-07T07:44:49;44.55;;;28.70;;
21010;SDS011;10663;42.714;23.274;2022-12-07T07:46:20;43.10;;;28.17;;
21010;SDS011;10663;42.714;23.274;2022-12-07T07:47:51;44.53;;;29.33;;
21010;SDS011;10663;42.714;23.274;2022-12-07T07:49:22;45.50;;;28.90;;
21010;SDS011;10663;42.714;23.274;2022-12-07T07:50:53;52.30;;;32.47;;
21010;SDS011;10663;42.714;23.274;2022-12-07T07:52:24;50.38;;;30.88;;
21010;SDS011;10663;42.714;23.274;2022-12-07T07:53:55;49.25;;;29.15;;
21010;SDS011;10663;42.714;23.274;2022-12-07T07:55:26;46.10;;;28.40;;
21010;SDS011;10663;42.714;23.274;2022-12-07T07:56:56;49.05;;;30.60;;
21010;SDS011;10663;42.714;23.274;2022-12-07T07:58:28;50.15;;;32.10;;
21010;SDS011;10663;42.714;23.274;2022-12-07T07:59:58;53.22;;;32.78;;
21010;SDS011;10663;42.714;23.274;2022-12-07T08:01:29;58.88;;;36.55;;
21010;SDS011;10663;42.714;23.274;2022-12-07T08:03:00;59.40;;;37.20;;
21010;SDS011;10663;42.714;23.274;2022-12-07T08:04:31;55.37;;;34.70;;
21010;SDS011;10663;42.714;23.274;2022-12-07T08:06:02;53.33;;;33.08;;
21010;SDS011;10663;42.714;23.274;2022-12-07T08:07:34;58.08;;;35.20;;
21010;SDS011;10663;42.714;23.274;2022-12-07T08:09:05;54.63;;;33.33;;
21010;SDS011;10663;42.714;23.274;2022-12-07T08:10:36;53.23;;;32.63;;
21010;SDS011;10663;42.714;23.274;2022-12-07T08:12:07;49.90;;;31.58;;
21010;SDS011;10663;42.714;23.274;2022-12-07T08:13:38;55.40;;;33.35;;
21010;SDS011;10663;42.714;23.274;2022-12-07T08:15:10;54.40;;;32.67;;
21010;SDS011;10663;42.714;23.274;2022-12-07T08:16:41;50.03;;;32.58;;
21010;SDS011;10663;42.714;23.274;2022-12-07T08:18:12;51.35;;;33.20;;
21010;SDS011;10663;42.714;23.274;2022-12-07T08:19:44;51.22;;;32.25;;
21010;SDS011;10663;42.714;23.274;2022-12-07T08:21:15;52.30;;;33.78;;
21010;SDS011;10663;42.714;23.274;2022-12-07T08:22:46;54.88;;;34.08;;
21010;SDS011;10663;42.714;23.274;2022-12-07T08:24:17;56.70;;;33.97;;
21010;SDS011;10663;42.714;23.274;2022-12-07T08:25:48;56.13;;;34.38;;
21010;SDS011;10663;42.714;23.274;2022-12-07T08:27:18;60.93;;;36.57;;
21010;SDS011;10663;42.714;23.274;2022-12-07T08:28:49;61.05;;;37.25;;
21010;SDS011;10663;42.714;23.274;2022-12-07T08:30:20;56.50;;;37.90;;
21010;SDS011;10663;42.714;23.274;2022-12-07T08:31:52;67.35;;;38.60;;
21010;SDS011;10663;42.714;23.274;2022-12-07T08:33:23;83.20;;;45.70;;
21010;SDS011;10663;42.714;23.274;2022-12-07T08:34:54;70.28;;;41.83;;
21010;SDS011;10663;42.714;23.274;2022-12-07T08:36:25;77.60;;;44.92;;
21010;SDS011;10663;42.714;23.274;2022-12-07T08:37:55;77.80;;;45.67;;
21010;SDS011;10663;42.714;23.274;2022-12-07T08:39:28;74.40;;;45.07;;
21010;SDS011;10663;42.714;23.274;2022-12-07T08:40:59;74.37;;;42.23;;
21010;SDS011;10663;42.714;23.274;2022-12-07T08:42:29;77.43;;;40.50;;
21010;SDS011;10663;42.714;23.274;2022-12-07T08:44:07;66.90;;;39.40;;
21010;SDS011;10663;42.714;23.274;2022-12-07T08:45:39;65.07;;;37.80;;
21010;SDS011;10663;42.714;23.274;2022-12-07T08:47:11;62.67;;;37.08;;
21010;SDS011;10663;42.714;23.274;2022-12-07T08:48:43;60.38;;;36.03;;
21010;SDS011;10663;42.714;23.274;2022-12-07T08:50:36;61.08;;;37.00;;
21010;SDS011;10663;42.714;23.274;2022-12-07T08:52:08;59.97;;;35.95;;
21010;SDS011;10663;42.714;23.274;2022-12-07T08:53:39;54.33;;;33.70;;
21010;SDS011;10663;42.714;23.274;2022-12-07T08:55:11;61.30;;;35.58;;
21010;SDS011;10663;42.714;23.274;2022-12-07T08:56:42;66.93;;;37.25;;
21010;SDS011;10663;42.714;23.274;2022-12-07T08:58:14;63.33;;;34.67;;
21010;SDS011;10663;42.714;23.274;2022-12-07T08:59:46;57.45;;;34.10;;
21010;SDS011;10663;42.714;23.274;2022-12-07T09:01:16;63.60;;;35.38;;
21010;SDS011;10663;42.714;23.274;2022-12-07T09:02:47;61.35;;;36.53;;
21010;SDS011;10663;42.714;23.274;2022-12-07T09:04:18;59.92;;;36.33;;
21010;SDS011;10663;42.714;23.274;2022-12-07T09:05:51;59.38;;;36.40;;
21010;SDS011;10663;42.714;23.274;2022-12-07T09:07:24;68.07;;;39.72;;
21010;SDS011;10663;42.714;23.274;2022-12-07T09:08:57;61.17;;;38.03;;
21010;SDS011;10663;42.714;23.274;2022-12-07T09:10:31;67.57;;;38.97;;
21010;SDS011;10663;42.714;23.274;2022-12-07T09:12:02;64.60;;;38.95;;
21010;SDS011;10663;42.714;23.274;2022-12-07T09:13:33;59.13;;;37.33;;
21010;SDS011;10663;42.714;23.274;2022-12-07T09:15:04;67.15;;;38.10;;
21010;SDS011;10663;42.714;23.274;2022-12-07T09:16:35;62.83;;;37.83;;
21010;SDS011;10663;42.714;23.274;2022-12-07T09:18:06;65.68;;;39.88;;
21010;SDS011;10663;42.714;23.274;2022-12-07T09:19:37;65.82;;;37.03;;
21010;SDS011;10663;42.714;23.274;2022-12-07T09:21:09;59.03;;;36.83;;